Time;durP1;ratioP1;P1;durP2;ratioP2;P2;SDS_P1;SDS_P2;PMS_P1;PMS_P2;Temp;Humidity;BMP_temperature;BMP_pressure;BME280_temperature;BME280_humidity;BME280_pressure;Samples;Min_cycle;Max_cycle;Signal;HPM_P1;HPM_P2
2021/05/11 00:01:42;;;;;;;6.80;4.15;;;;;;;14.32;64.26;99288.69;5117790;28;20035;-47
2021/05/11 00:04:08;;;;;;;7.25;4.68;;;;;;;14.25;65.06;99283.72;5118731;28;20353;-47
2021/05/11 00:06:33;;;;;;;7.43;4.72;;;;;;;14.23;64.79;99275.06;5117173;28;20048;-47
2021/05/11 00:08:59;;;;;;;10.35;4.55;;;;;;;14.20;65.34;99287.50;5118045;28;20036;-47
2021/05/11 00:11:25;;;;;;;7.65;4.65;;;;;;;14.12;66.80;99276.50;5118741;28;20044;-47
2021/05/11 00:13:51;;;;;;;8.98;4.80;;;;;;;14.13;65.76;99281.66;5099589;28;20032;-47
2021/05/11 00:16:16;;;;;;;7.43;4.38;;;;;;;14.08;66.50;99275.78;5117878;28;20043;-47
2021/05/11 00:18:42;;;;;;;9.88;4.55;;;;;;;14.03;66.80;99268.09;5117030;28;20074;-47
2021/05/11 00:21:08;;;;;;;8.27;4.90;;;;;;;14.01;66.95;99269.13;5118454;28;20415;-47
2021/05/11 00:23:33;;;;;;;7.60;4.65;;;;;;;14.02;66.71;99279.56;5100298;28;20048;-47
2021/05/11 00:25:59;;;;;;;6.45;4.38;;;;;;;13.99;67.08;99270.94;5117847;28;20055;-47
2021/05/11 00:28:25;;;;;;;6.40;4.60;;;;;;;13.92;67.98;99273.03;5117087;28;20058;-47
2021/05/11 00:30:50;;;;;;;7.93;4.93;;;;;;;13.84;68.94;99276.94;5117768;28;20042;-47
2021/05/11 00:33:17;;;;;;;9.25;5.35;;;;;;;13.79;69.01;99274.53;5117507;28;20429;-47
2021/05/11 00:35:43;;;;;;;10.27;4.88;;;;;;;13.86;68.86;99272.47;5117842;28;20039;-47
2021/05/11 00:38:09;;;;;;;8.13;5.63;;;;;;;13.91;68.00;99268.69;5117446;28;20058;-47
2021/05/11 00:40:35;;;;;;;10.52;5.57;;;;;;;13.96;67.86;99266.69;5117753;28;20055;-47
2021/05/11 00:43:00;;;;;;;6.63;4.53;;;;;;;13.99;66.96;99265.69;5117905;28;20044;-47
2021/05/11 00:45:26;;;;;;;8.18;5.35;;;;;;;13.99;67.38;99269.16;5116451;28;20048;-47
2021/05/11 00:47:52;;;;;;;11.93;5.10;;;;;;;14.01;66.72;99264.69;5117614;28;20047;-47
2021/05/11 00:50:17;;;;;;;7.57;4.45;;;;;;;14.01;66.42;99263.84;5117573;28;20055;-47
2021/05/11 00:52:43;;;;;;;8.75;4.18;;;;;;;14.00;66.06;99247.16;5100154;28;20048;-47
2021/05/11 00:55:10;;;;;;;10.02;4.47;;;;;;;14.05;66.15;99254.88;5099582;28;20043;-47
2021/05/11 00:57:35;;;;;;;7.93;4.70;;;;;;;14.11;65.91;99262.47;5116566;28;20047;-47
2021/05/11 01:00:07;;;;;;;8.77;5.28;;;;;;;14.12;66.21;99258.91;5099572;28;20043;-47
2021/05/11 01:02:33;;;;;;;9.90;5.38;;;;;;;14.09;66.71;99256.41;5117591;27;20069;-47
2021/05/11 01:04:59;;;;;;;12.32;5.63;;;;;;;14.08;66.35;99252.09;5117273;28;20047;-47
2021/05/11 01:07:25;;;;;;;9.95;5.85;;;;;;;13.93;67.18;99243.13;5099466;28;20108;-47
2021/05/11 01:09:51;;;;;;;8.38;4.97;;;;;;;14.03;66.83;99256.72;5117417;28;20100;-47
2021/05/11 01:12:16;;;;;;;9.50;5.15;;;;;;;13.96;66.88;99250.88;5116244;28;20096;-47
2021/05/11 01:14:42;;;;;;;6.93;5.35;;;;;;;13.92;67.44;99244.06;5116282;28;20422;-47
2021/05/11 01:17:15;;;;;;;8.07;5.05;;;;;;;13.89;67.44;99238.94;5117094;28;20354;-47
2021/05/11 01:19:49;;;;;;;;;;;;;;;13.63;69.22;99241.94;5117320;28;20108;-47
2021/05/11 01:25:06;;;;;;;7.47;5.07;;;;;;;13.73;67.95;99235.34;5115128;28;20127;-47
2021/05/11 01:27:49;;;;;;;8.65;4.75;;;;;;;13.68;67.83;99235.56;5115859;28;20349;-47
2021/05/11 01:51:45;;;;;;;5.43;4.15;;;;;;;13.28;68.67;99232.09;5116862;28;20039;-46
2021/05/11 02:18:19;;;;;;;6.85;4.65;;;;;;;12.86;70.09;99217.28;5116446;28;20073;-46
2021/05/11 02:23:30;;;;;;;9.57;4.90;;;;;;;12.89;69.86;99220.72;5116756;28;20047;-46
2021/05/11 02:25:56;;;;;;;7.97;5.57;;;;;;;12.84;69.95;99213.88;5115254;28;20038;-46
2021/05/11 02:28:23;;;;;;;9.43;5.30;;;;;;;12.79;70.29;99213.22;5116001;28;20442;-46
2021/05/11 02:30:49;;;;;;;7.75;5.28;;;;;;;12.74;70.47;99211.69;5116325;28;20143;-46
2021/05/11 02:33:15;;;;;;;9.10;6.05;;;;;;;12.83;69.88;99211.31;5116019;28;20046;-47
2021/05/11 02:35:41;;;;;;;21.90;12.50;;;;;;;12.79;69.89;99207.13;5116290;28;20122;-46
2021/05/11 02:38:06;;;;;;;19.38;10.10;;;;;;;12.79;70.04;99207.13;5120029;28;20047;-46
2021/05/11 02:40:32;;;;;;;27.15;12.35;;;;;;;12.81;69.58;99207.91;5120127;28;20085;-46
2021/05/11 02:43:02;;;;;;;34.35;19.17;;;;;;;12.78;69.01;99203.63;5119763;28;20044;-46
2021/05/11 02:45:29;;;;;;;39.88;19.92;;;;;;;12.74;69.54;99206.44;5120348;27;20059;-46
2021/05/11 02:47:54;;;;;;;23.10;12.80;;;;;;;12.73;69.48;99200.34;5119738;28;20040;-46
2021/05/11 02:50:23;;;;;;;11.48;7.35;;;;;;;12.69;69.87;99198.78;5101780;28;20047;-46
2021/05/11 02:52:49;;;;;;;11.52;5.60;;;;;;;12.67;70.18;99205.00;5118534;28;20476;-46
2021/05/11 02:55:15;;;;;;;8.68;5.70;;;;;;;12.66;69.97;99198.06;5119583;28;20039;-46
2021/05/11 02:57:41;;;;;;;11.38;6.25;;;;;;;12.64;69.92;99190.22;5119512;28;20047;-46
2021/05/11 03:00:07;;;;;;;7.22;4.90;;;;;;;12.65;69.82;99197.22;5120037;28;20040;-46
2021/05/11 03:02:33;;;;;;;10.80;5.22;;;;;;;12.56;70.95;99197.59;5119663;28;20048;-46
2021/05/11 03:04:58;;;;;;;8.05;4.72;;;;;;;12.56;70.45;99198.44;5119647;27;20356;-46
2021/05/11 03:07:24;;;;;;;6.45;3.75;;;;;;;12.53;70.83;99195.09;5119814;28;20039;-46
2021/05/11 03:09:50;;;;;;;6.50;4.55;;;;;;;12.52;70.70;99206.53;5118677;28;20047;-46
2021/05/11 03:12:16;;;;;;;8.10;4.70;;;;;;;12.51;70.25;99195.19;5119423;28;20430;-46
2021/05/11 03:14:41;;;;;;;8.82;4.65;;;;;;;12.49;70.00;99198.78;5119206;28;20037;-46
2021/05/11 03:17:07;;;;;;;5.28;4.45;;;;;;;12.40;70.97;99200.03;5119359;28;20082;-46
2021/05/11 03:19:33;;;;;;;10.80;4.47;;;;;;;12.41;71.20;99199.09;5119162;28;20051;-46
2021/05/11 03:21:58;;;;;;;11.02;5.28;;;;;;;12.39;71.02;99199.16;5119271;28;20052;-46
2021/05/11 03:24:24;;;;;;;8.23;4.93;;;;;;;12.39;71.43;99195.69;5118122;28;20100;-46
2021/05/11 03:26:51;;;;;;;6.43;4.10;;;;;;;12.47;70.50;99195.34;5118900;28;20047;-46
2021/05/11 03:29:16;;;;;;;6.75;3.70;;;;;;;12.50;70.35;99192.59;5118855;28;20055;-46
2021/05/11 03:31:42;;;;;;;6.55;4.80;;;;;;;12.44;70.71;99183.19;5118318;28;20071;-46
2021/05/11 03:34:08;;;;;;;6.40;4.28;;;;;;;12.44;70.98;99180.56;5117804;28;20043;-46
2021/05/11 03:36:33;;;;;;;10.07;4.97;;;;;;;12.51;70.67;99192.56;5119296;28;20043;-46
2021/05/11 03:39:04;;;;;;;8.25;5.35;;;;;;;12.49;71.22;99183.88;5118095;28;20105;-46
2021/05/11 03:41:35;;;;;;;6.35;4.70;;;;;;;12.54;71.00;99184.50;5118764;28;20046;-46
2021/05/11 03:44:08;;;;;;;4.80;4.13;;;;;;;12.56;71.01;99179.22;5118886;28;20101;-46
2021/05/11 03:46:35;;;;;;;9.15;4.68;;;;;;;12.57;71.16;99176.50;5118937;28;20089;-46
2021/05/11 03:49:02;;;;;;;6.88;5.00;;;;;;;12.64;70.94;99171.84;5117629;28;20096;-46
2021/05/11 03:51:27;;;;;;;11.63;4.57;;;;;;;12.70;70.50;99171.56;5117601;28;20036;-46
2021/05/11 03:53:53;;;;;;;8.77;4.85;;;;;;;12.77;70.62;99173.03;5118597;28;20054;-46
2021/05/11 03:56:19;;;;;;;6.15;4.50;;;;;;;12.91;70.33;99158.44;5100887;28;20052;-46
2021/05/11 03:58:45;;;;;;;9.88;5.13;;;;;;;12.94;70.02;99153.88;5118598;28;20459;-46
2021/05/11 04:01:11;;;;;;;10.38;6.18;;;;;;;13.08;69.85;99159.34;5117680;28;20460;-46
2021/05/11 04:03:36;;;;;;;9.68;5.57;;;;;;;13.19;69.71;99150.13;5118807;28;20422;-46
2021/05/11 04:06:03;;;;;;;7.82;5.47;;;;;;;13.28;69.44;99147.09;5118479;28;20036;-46
2021/05/11 04:11:07;;;;;;;11.45;5.55;;;;;;;13.89;68.09;99151.22;5117947;28;20434;-47
2021/05/11 04:13:54;;;;;;;11.00;4.93;;;;;;;14.50;68.10;99150.78;5117359;28;20440;-47
2021/05/11 04:16:22;;;;;;;10.15;4.85;;;;;;;15.16;64.68;99142.91;5115134;28;20040;-47
2021/05/11 04:18:49;;;;;;;9.50;4.18;;;;;;;15.51;62.64;99150.69;5076518;28;20128;-47
2021/05/11 04:21:15;;;;;;;6.90;4.88;;;;;;;15.62;62.02;99153.56;5096340;28;20067;-47
2021/05/11 04:23:42;;;;;;;10.65;4.97;;;;;;;15.84;60.98;99147.09;5096580;28;20040;-47
2021/05/11 04:26:09;;;;;;;11.65;5.43;;;;;;;16.03;60.07;99152.19;5096807;28;20129;-47
2021/05/11 04:28:34;;;;;;;7.50;4.57;;;;;;;16.21;59.59;99143.19;5080016;28;20047;-47
2021/05/11 04:31:00;;;;;;;9.38;4.40;;;;;;;16.44;57.76;99143.59;5097316;28;20070;-47
2021/05/11 04:33:26;;;;;;;8.95;5.03;;;;;;;16.66;57.24;99137.91;5097211;28;20040;-47
2021/05/11 04:35:53;;;;;;;8.38;4.10;;;;;;;17.27;56.36;99142.06;5097177;28;20044;-47
2021/05/11 04:38:19;;;;;;;11.13;5.13;;;;;;;17.86;54.98;99140.06;5097443;28;20495;-47
2021/05/11 04:40:45;;;;;;;9.18;5.32;;;;;;;18.22;52.81;99135.91;5096828;28;20189;-47
2021/05/11 04:43:11;;;;;;;12.35;5.65;;;;;;;18.52;51.78;99132.13;5097351;28;20044;-47
2021/05/11 04:45:37;;;;;;;12.20;5.68;;;;;;;18.73;51.15;99136.00;5096189;28;20036;-47
2021/05/11 04:48:03;;;;;;;12.07;5.63;;;;;;;19.01;50.52;99132.28;5096964;28;20050;-47
2021/05/11 04:50:28;;;;;;;11.40;4.97;;;;;;;19.44;49.75;99126.56;5096037;28;20048;-47
2021/05/11 04:52:56;;;;;;;14.82;5.57;;;;;;;19.91;48.53;99132.88;5096869;28;20040;-47
2021/05/11 04:55:21;;;;;;;10.32;5.90;;;;;;;20.41;48.36;99133.56;5096884;28;20350;-47
2021/05/11 04:57:47;;;;;;;10.65;5.75;;;;;;;20.90;46.14;99135.13;5096860;28;20044;-47
2021/05/11 05:00:14;;;;;;;13.27;4.85;;;;;;;21.23;45.44;99126.28;5096902;28;20079;-47
2021/05/11 05:02:42;;;;;;;12.40;5.25;;;;;;;21.73;44.29;99123.19;5079341;28;20123;-47
2021/05/11 05:05:08;;;;;;;7.60;4.85;;;;;;;22.15;43.50;99128.59;5096682;28;20044;-47
2021/05/11 05:07:35;;;;;;;11.40;5.35;;;;;;;22.57;42.73;99125.97;5096920;28;20116;-47
2021/05/11 05:10:01;;;;;;;8.18;5.05;;;;;;;22.86;41.36;99123.47;5095741;28;20424;-47
2021/05/11 05:12:27;;;;;;;10.75;6.25;;;;;;;23.01;40.76;99118.63;5096777;28;20062;-47
2021/05/11 05:14:52;;;;;;;11.93;4.95;;;;;;;23.34;40.28;99122.84;5096792;28;20058;-48
2021/05/11 05:17:18;;;;;;;6.07;3.13;;;;;;;23.67;39.45;99119.00;5095908;28;20058;-48
2021/05/11 05:19:44;;;;;;;7.45;3.20;;;;;;;23.95;38.82;99111.16;5108403;28;20066;-48
2021/05/11 05:22:10;;;;;;;6.82;2.55;;;;;;;24.17;38.86;99115.38;5116597;28;20047;-48
2021/05/11 05:24:59;;;;;;;6.20;3.28;;;;;;;24.52;38.40;99108.63;5116742;28;20046;-48
2021/05/11 05:27:25;;;;;;;6.25;2.95;;;;;;;24.72;37.19;99104.88;5116670;28;20104;-48
2021/05/11 05:29:50;;;;;;;15.05;3.60;;;;;;;24.93;36.13;99104.69;5116678;28;20036;-47
2021/05/11 05:32:16;;;;;;;6.88;3.15;;;;;;;25.43;36.31;99104.34;5116264;28;20118;-47
2021/05/11 05:34:42;;;;;;;9.80;3.92;;;;;;;25.57;35.93;99100.28;5116622;28;20063;-47
2021/05/11 05:37:09;;;;;;;7.88;3.47;;;;;;;25.82;35.51;99104.09;5099094;28;20067;-47
2021/05/11 05:39:41;;;;;;;6.63;3.25;;;;;;;25.99;35.47;99100.56;5116519;28;20044;-47
2021/05/11 05:42:07;;;;;;;9.45;3.42;;;;;;;26.21;35.04;99101.09;5116837;28;20354;-48
2021/05/11 05:44:33;;;;;;;8.07;3.70;;;;;;;26.28;34.68;99092.25;5116763;28;20052;-48
2021/05/11 05:46:59;;;;;;;5.60;3.33;;;;;;;26.45;33.72;99097.75;5115884;28;20078;-48
2021/05/11 05:49:29;;;;;;;6.32;3.97;;;;;;;26.52;33.96;99086.28;5116421;28;20407;-48
2021/05/11 05:52:01;;;;;;;5.68;2.83;;;;;;;26.70;34.12;99098.78;5115876;28;20055;-48
2021/05/11 05:54:26;;;;;;;6.45;2.60;;;;;;;26.88;33.32;99104.94;5116629;28;20093;-48
2021/05/11 05:56:52;;;;;;;6.28;2.45;;;;;;;26.76;33.72;99082.88;5116641;28;20051;-48
2021/05/11 05:59:18;;;;;;;4.07;2.38;;;;;;;27.00;34.24;99057.97;5116360;28;20130;-48
2021/05/11 06:01:44;;;;;;;7.10;2.80;;;;;;;27.49;32.74;99085.06;5098748;28;20090;-47
2021/05/11 06:04:14;;;;;;;6.65;2.90;;;;;;;27.53;32.43;99072.13;5116240;28;20323;-47
2021/05/11 06:06:40;;;;;;;4.32;2.72;;;;;;;27.65;32.13;99069.97;5115518;28;20104;-47
2021/05/11 06:09:13;;;;;;;8.32;2.95;;;;;;;27.67;31.88;99081.41;5115156;28;20043;-47
2021/05/11 06:11:44;;;;;;;6.57;2.75;;;;;;;27.77;31.72;99086.66;5116468;28;20445;-47
2021/05/11 06:14:18;;;;;;;7.72;2.65;;;;;;;27.62;31.86;99070.28;5119314;28;20040;-47
2021/05/11 06:19:28;;;;;;;7.05;2.53;;;;;;;27.59;32.12;99070.63;5117456;28;20055;-47
2021/05/11 06:21:54;;;;;;;6.40;2.58;;;;;;;27.55;32.00;99064.72;5118809;28;20433;-47
2021/05/11 06:24:20;;;;;;;4.03;2.38;;;;;;;27.63;31.96;99072.00;5119759;28;20056;-47
2021/05/11 06:26:46;;;;;;;4.60;2.45;;;;;;;27.72;31.83;99071.84;5119600;28;20044;-47
2021/05/11 06:29:16;;;;;;;4.95;2.80;;;;;;;27.87;32.15;99065.81;5119434;28;20060;-47
2021/05/11 06:31:42;;;;;;;4.25;3.05;;;;;;;27.79;31.86;99065.81;5119103;28;20063;-47
2021/05/11 06:34:09;;;;;;;4.22;2.10;;;;;;;28.04;31.55;99063.97;5120019;28;20059;-47
2021/05/11 06:36:35;;;;;;;8.45;2.40;;;;;;;28.10;31.92;99060.63;5120462;28;20071;-47
2021/05/11 06:39:04;;;;;;;8.07;2.38;;;;;;;28.24;31.79;99059.09;5102280;28;20043;-47
2021/05/11 06:41:30;;;;;;;3.80;1.92;;;;;;;28.38;30.96;99061.94;5085960;28;20117;-48
2021/05/11 06:44:02;;;;;;;4.50;2.30;;;;;;;28.62;31.08;99061.06;5119975;28;20055;-47
2021/05/11 06:53:54;;;;;;;7.55;2.15;;;;;;;29.32;30.67;99056.81;5119504;28;20036;-48
2021/05/11 06:56:20;;;;;;;8.13;1.63;;;;;;;29.29;31.09;99052.59;5119772;28;20047;-48
2021/05/11 06:58:46;;;;;;;7.35;1.88;;;;;;;29.55;30.46;99051.44;5118848;28;20040;-48
2021/05/11 07:01:15;;;;;;;4.35;2.00;;;;;;;29.82;30.02;99050.09;5118525;28;20039;-48
2021/05/11 07:03:41;;;;;;;3.33;2.25;;;;;;;29.97;29.72;99044.78;5119633;28;20051;-48
2021/05/11 07:06:07;;;;;;;6.00;1.92;;;;;;;29.96;28.80;99056.56;5119631;28;20354;-48
2021/05/11 07:08:38;;;;;;;4.03;1.70;;;;;;;29.92;29.38;99036.38;5119445;28;20065;-48
2021/05/11 07:13:53;;;;;;;10.10;2.00;;;;;;;30.13;29.50;99035.69;5109092;28;20357;-48
2021/05/11 07:16:18;;;;;;;4.18;1.80;;;;;;;30.20;28.64;99036.66;5119705;28;20044;-48
2021/05/11 07:18:44;;;;;;;7.82;2.20;;;;;;;30.24;28.69;99029.88;5118132;28;20047;-48
2021/05/11 07:21:10;;;;;;;5.00;2.38;;;;;;;30.12;28.71;99026.72;5120096;28;20062;-48
2021/05/11 07:23:36;;;;;;;7.53;2.58;;;;;;;30.25;29.24;99034.25;5117849;28;20039;-48
2021/05/11 07:26:10;;;;;;;12.57;2.17;;;;;;;30.58;28.13;99037.47;5118911;28;20096;-48
2021/05/11 07:31:10;;;;;;;4.50;1.92;;;;;;;30.72;27.82;99016.88;5118281;28;20055;-48
2021/05/11 07:33:40;;;;;;;7.13;1.67;;;;;;;30.66;27.94;99021.16;5118100;28;20057;-48
2021/05/11 07:36:06;;;;;;;6.38;1.77;;;;;;;30.82;28.32;99011.22;5118774;28;20035;-48
2021/05/11 07:38:32;;;;;;;3.17;1.80;;;;;;;30.86;29.30;99013.34;5118955;27;20059;-48
2021/05/11 07:40:58;;;;;;;5.95;1.77;;;;;;;31.16;28.98;99021.41;5101103;28;20039;-48
2021/05/11 07:43:26;;;;;;;5.00;1.90;;;;;;;31.39;27.68;99014.03;5118810;28;20069;-48
2021/05/11 07:46:20;;;;;;;3.25;1.70;;;;;;;31.17;28.41;99021.22;5118521;28;20455;-48
2021/05/11 07:49:16;;;;;;;5.68;1.80;;;;;;;31.17;29.27;99023.09;5118539;28;20479;-48
2021/05/11 08:05:13;;;;;;;2.95;1.33;;;;;;;31.43;26.99;98985.56;5108301;28;20121;-48
2021/05/11 08:16:06;;;;;;;6.18;1.48;;;;;;;32.02;26.23;99003.41;5118304;28;20042;-48
2021/05/11 08:29:11;;;;;;;3.80;1.52;;;;;;;31.97;26.71;98999.59;5100079;28;20051;-48
2021/05/11 08:31:38;;;;;;;3.85;1.73;;;;;;;31.87;27.54;99008.00;5117650;28;20138;-48
2021/05/11 08:34:03;;;;;;;6.97;1.02;;;;;;;31.89;24.82;98990.59;5116523;28;20046;-48
2021/05/11 08:36:29;;;;;;;3.33;1.02;;;;;;;31.84;24.72;98986.75;5117868;28;20055;-48
2021/05/11 08:38:57;;;;;;;3.05;1.33;;;;;;;31.83;25.52;98996.75;5116632;28;20096;-48
2021/05/11 08:41:23;;;;;;;11.32;1.63;;;;;;;31.90;23.98;98994.13;5117440;28;20369;-48
2021/05/11 08:43:49;;;;;;;13.50;1.50;;;;;;;31.83;24.35;98995.91;5117418;27;20050;-48
2021/05/11 08:46:15;;;;;;;6.18;1.58;;;;;;;31.87;23.78;98994.47;5117686;28;20032;-48
2021/05/11 08:48:41;;;;;;;1.35;0.52;;;;;;;31.66;24.55;98998.88;5116673;28;20048;-48
2021/05/11 08:51:12;;;;;;;3.53;1.40;;;;;;;31.59;25.23;99000.69;5117223;28;20043;-48
2021/05/11 09:26:50;;;;;;;4.18;0.90;;;;;;;31.38;24.79;99011.50;5116126;28;20134;-48
2021/05/11 09:44:49;;;;;;;3.42;1.00;;;;;;;31.70;25.67;99002.03;5116022;28;20044;-48
2021/05/11 09:57:07;;;;;;;4.15;0.95;;;;;;;32.05;22.89;99003.00;5116337;28;19923;-48
2021/05/11 10:49:33;;;;;;;7.65;1.52;;;;;;;33.06;23.07;98967.38;5115334;28;20040;-48
2021/05/11 10:52:03;;;;;;;15.20;1.25;;;;;;;33.23;22.78;98968.66;5115860;28;20048;-48
2021/05/11 10:54:40;;;;;;;3.28;1.00;;;;;;;33.23;23.52;98965.94;5116500;28;20122;-48
2021/05/11 10:57:30;;;;;;;5.85;0.88;;;;;;;33.13;23.53;98964.66;5116825;28;20035;-48
2021/05/11 11:00:03;;;;;;;5.45;0.70;;;;;;;33.14;23.61;98964.44;5119753;27;20441;-48
2021/05/11 11:05:01;;;;;;;4.90;0.80;;;;;;;33.40;22.73;98955.53;5118313;28;20047;-48
2021/05/11 11:07:34;;;;;;;8.10;1.10;;;;;;;33.32;23.76;98957.63;5118637;28;20043;-48
2021/05/11 11:10:00;;;;;;;2.30;0.65;;;;;;;33.32;24.06;98946.78;5119030;28;20048;-48
2021/05/11 11:12:37;;;;;;;7.00;1.00;;;;;;;33.38;23.22;98948.66;5118561;28;20052;-48
2021/05/11 11:15:07;;;;;;;4.53;0.70;;;;;;;33.32;23.62;98947.59;5118973;28;20502;-48
2021/05/11 11:17:40;;;;;;;2.53;0.70;;;;;;;33.43;23.91;98948.88;5116739;28;20437;-48
2021/05/11 11:20:09;;;;;;;2.53;0.70;;;;;;;33.56;23.00;98948.91;5118787;28;20135;-48
2021/05/11 11:25:19;;;;;;;7.50;1.10;;;;;;;33.48;23.72;98939.06;5118293;28;20061;-49
2021/05/11 11:27:46;;;;;;;3.42;0.55;;;;;;;33.56;22.81;98919.06;5117934;28;20434;-49
2021/05/11 11:30:13;;;;;;;4.07;0.80;;;;;;;33.59;22.41;98924.06;5117851;28;20525;-48
2021/05/11 11:32:39;;;;;;;6.38;0.63;;;;;;;33.56;22.50;98926.38;5117681;28;20050;-48
2021/05/11 11:35:06;;;;;;;6.40;0.60;;;;;;;33.40;22.35;98928.41;5116822;28;20047;-48
2021/05/11 11:37:32;;;;;;;8.70;1.00;;;;;;;33.37;22.33;98936.97;5117387;27;20062;-48
2021/05/11 11:40:01;;;;;;;5.05;1.30;;;;;;;33.27;22.38;98933.81;5116849;28;20115;-48
2021/05/11 11:42:41;;;;;;;5.57;0.85;;;;;;;33.28;22.19;98930.91;5117305;28;20062;-48
2021/05/11 11:45:12;;;;;;;1.13;0.70;;;;;;;33.24;22.66;98928.78;5116793;28;20429;-48
2021/05/11 11:47:42;;;;;;;5.13;0.98;;;;;;;33.25;23.88;98933.19;5117665;28;20036;-48
2021/05/11 11:50:09;;;;;;;6.95;1.00;;;;;;;33.44;22.24;98926.09;5118862;28;20056;-48
2021/05/11 11:52:46;;;;;;;6.75;0.63;;;;;;;33.41;22.64;98923.81;5118485;28;20040;-48
2021/05/11 11:57:55;;;;;;;3.88;0.60;;;;;;;33.47;21.85;98914.84;5117893;28;20055;-48
2021/05/11 12:00:27;;;;;;;2.00;0.75;;;;;;;33.50;22.69;98915.28;5118410;28;20039;-49
2021/05/11 12:03:06;;;;;;;3.08;0.57;;;;;;;33.58;22.07;98916.16;5117761;28;20104;-48
2021/05/11 12:05:36;;;;;;;3.40;0.80;;;;;;;33.56;21.99;98905.50;5118232;28;20061;-48
2021/05/11 12:10:58;;;;;;;9.02;1.75;;;;;;;33.68;22.14;98903.00;5117505;28;20043;-49
2021/05/11 12:13:30;;;;;;;2.72;0.60;;;;;;;33.82;21.30;98909.25;5118337;27;20084;-48
2021/05/11 12:16:13;;;;;;;3.50;0.60;;;;;;;33.80;20.89;98900.47;5118424;28;20039;-48
2021/05/11 12:18:43;;;;;;;4.38;0.80;;;;;;;33.72;20.06;98905.06;5117841;28;20048;-48
2021/05/11 12:21:10;;;;;;;6.85;0.88;;;;;;;33.61;21.12;98902.16;5118245;28;20047;-48
2021/05/11 12:23:36;;;;;;;6.35;0.90;;;;;;;33.48;20.28;98873.13;5100358;28;20039;-48
2021/05/11 12:26:03;;;;;;;4.55;0.63;;;;;;;33.56;19.84;98888.38;5116931;28;20054;-48
2021/05/11 12:28:29;;;;;;;3.47;1.08;;;;;;;33.54;20.69;98902.16;5100280;28;20059;-48
2021/05/11 12:30:55;;;;;;;4.47;0.68;;;;;;;33.54;21.54;98901.31;5118043;28;20408;-48
2021/05/11 12:33:34;;;;;;;3.75;0.80;;;;;;;33.60;19.72;98898.59;5100107;28;20057;-48
2021/05/11 12:36:03;;;;;;;4.90;1.02;;;;;;;33.50;20.21;98890.88;5117969;28;20103;-48
2021/05/11 12:38:30;;;;;;;2.75;0.95;;;;;;;33.50;20.13;98882.72;5117240;28;20082;-48
2021/05/11 12:43:45;;;;;;;4.15;1.05;;;;;;;33.50;21.22;98882.72;5117764;28;20039;-48
2021/05/11 12:46:17;;;;;;;6.05;0.85;;;;;;;33.61;21.33;98881.28;5117579;28;20043;-48
2021/05/11 12:49:03;;;;;;;3.50;0.57;;;;;;;33.61;21.31;98865.00;5117710;28;20047;-48
2021/05/11 12:51:38;;;;;;;2.08;0.52;;;;;;;33.73;21.69;98870.59;5118486;28;20063;-48
2021/05/11 12:54:36;;;;;;;2.80;0.85;;;;;;;33.62;22.93;98874.81;5117839;28;20044;-48
2021/05/11 12:59:51;;;;;;;10.80;1.17;;;;;;;33.69;21.59;98861.22;5117209;28;20340;-49
2021/05/11 13:27:04;;;;;;;64.18;8.90;;;;;;;33.45;22.06;98851.81;5116312;28;20052;-48
2021/05/11 13:32:27;;;;;;;19.92;2.13;;;;;;;33.39;21.02;98839.91;5116355;28;20039;-48
2021/05/11 13:34:52;;;;;;;4.13;0.82;;;;;;;33.30;21.12;98832.19;5116810;28;20081;-48
2021/05/11 13:37:20;;;;;;;3.13;0.70;;;;;;;33.23;21.94;98829.47;5116363;28;20047;-48
2021/05/11 13:39:45;;;;;;;5.57;0.95;;;;;;;33.35;21.32;98818.84;5115628;28;20040;-48
2021/05/11 13:42:12;;;;;;;6.03;0.95;;;;;;;33.36;21.14;98820.50;5116987;28;20043;-49
2021/05/11 13:44:38;;;;;;;10.43;1.20;;;;;;;33.38;21.04;98813.84;5116787;28;20043;-48
2021/05/11 13:47:03;;;;;;;7.93;1.42;;;;;;;33.31;21.21;98814.88;5116836;28;20054;-48
2021/05/11 13:49:29;;;;;;;11.25;1.02;;;;;;;33.40;21.21;98810.91;5116598;28;20055;-48
2021/05/11 13:51:55;;;;;;;7.18;1.13;;;;;;;33.26;21.25;98789.22;5116038;28;20055;-48
2021/05/11 13:54:21;;;;;;;4.20;0.73;;;;;;;33.36;20.84;98810.50;5114414;28;20373;-48
2021/05/11 14:01:34;;;;;;;2.58;1.13;;;;;;;33.27;21.17;98800.88;5114691;28;20052;-48
2021/05/11 14:05:01;;;;;;;11.70;1.08;;;;;;;33.36;21.39;98802.34;5116503;28;20044;-49
2021/05/11 14:07:27;;;;;;;5.05;0.60;;;;;;;33.27;21.28;98799.00;5116546;28;20373;-49
2021/05/11 14:09:53;;;;;;;5.07;0.88;;;;;;;33.26;21.09;98800.06;5115702;28;20043;-48
2021/05/11 14:12:18;;;;;;;7.57;1.80;;;;;;;33.25;21.69;98801.13;5116744;28;20044;-48
2021/05/11 14:14:44;;;;;;;7.85;1.42;;;;;;;33.16;21.62;98786.09;5116745;28;20047;-48
2021/05/11 14:17:10;;;;;;;4.05;1.20;;;;;;;33.14;22.18;98784.63;5116496;28;20051;-48
2021/05/11 14:19:36;;;;;;;20.70;13.20;;;;;;;33.17;22.80;98785.03;5115286;28;20058;-48
2021/05/11 14:22:02;;;;;;;5.50;3.60;;;;;;;33.24;22.48;98785.03;5116407;28;20112;-48
2021/05/11 14:24:28;;;;;;;5.53;2.13;;;;;;;33.32;22.33;98784.00;5116366;28;20048;-48
2021/05/11 14:26:54;;;;;;;13.27;9.73;;;;;;;33.28;21.94;98776.28;5116061;28;20116;-48
2021/05/11 14:29:19;;;;;;;38.60;18.80;;;;;;;33.31;21.85;98782.31;5115477;28;20056;-48
2021/05/11 14:31:45;;;;;;;19.83;14.40;;;;;;;33.21;22.33;98772.72;5115248;28;20089;-48
2021/05/11 14:34:13;;;;;;;10.82;3.72;;;;;;;33.26;21.93;98774.81;5119336;28;20044;-48
2021/05/11 14:36:39;;;;;;;6.38;2.05;;;;;;;33.19;22.10;98769.41;5120787;28;20485;-48
2021/05/11 14:39:05;;;;;;;6.15;2.00;;;;;;;33.23;22.48;98772.53;5119975;28;20044;-48
2021/05/11 14:41:31;;;;;;;12.95;2.38;;;;;;;33.27;22.38;98771.06;5120155;28;20047;-48
2021/05/11 14:43:56;;;;;;;4.97;0.93;;;;;;;33.18;21.63;98754.19;5119538;28;20089;-48
2021/05/11 14:46:22;;;;;;;5.47;1.50;;;;;;;33.11;22.31;98744.34;5119724;28;20341;-48
2021/05/11 14:48:50;;;;;;;7.10;1.77;;;;;;;33.07;23.02;98765.63;5119688;28;20040;-48
2021/05/11 14:51:16;;;;;;;7.30;1.00;;;;;;;33.07;23.25;98754.78;5119834;28;20047;-48
2021/05/11 14:53:43;;;;;;;12.00;1.83;;;;;;;33.17;23.60;98754.38;5102056;28;20138;-48
2021/05/11 14:56:09;;;;;;;8.43;1.95;;;;;;;33.23;23.22;98762.50;5119593;28;20510;-48
2021/05/11 14:58:35;;;;;;;3.15;1.45;;;;;;;33.20;23.74;98754.78;5118622;28;20096;-48
2021/05/11 15:01:01;;;;;;;3.33;1.17;;;;;;;33.24;24.30;98755.19;5118677;28;20047;-48
2021/05/11 15:03:27;;;;;;;3.65;1.00;;;;;;;33.28;23.95;98748.31;5119757;28;20059;-48
2021/05/11 15:05:53;;;;;;;4.18;0.88;;;;;;;33.15;23.61;98756.44;5119471;28;20442;-48
2021/05/11 15:08:18;;;;;;;7.45;1.20;;;;;;;33.08;22.89;98755.63;5119668;28;20056;-48
2021/05/11 15:10:46;;;;;;;1.75;1.00;;;;;;;32.94;23.00;98747.44;5119354;28;20505;-48
2021/05/11 15:13:12;;;;;;;1.17;0.80;;;;;;;32.90;23.26;98745.38;5119248;28;20043;-48
2021/05/11 15:15:39;;;;;;;7.60;0.90;;;;;;;32.77;23.71;98738.91;5102554;28;20060;-48
2021/05/11 15:18:06;;;;;;;5.60;1.10;;;;;;;32.72;23.37;98735.13;5118562;28;20148;-48
2021/05/11 15:20:33;;;;;;;5.30;1.13;;;;;;;32.62;23.47;98742.84;5118950;28;20067;-48
2021/05/11 15:22:59;;;;;;;1.88;0.70;;;;;;;32.58;23.94;98743.25;5119034;28;20358;-48
2021/05/11 15:25:27;;;;;;;7.05;0.90;;;;;;;32.45;24.16;98743.22;5101295;28;20465;-48
2021/05/11 15:27:54;;;;;;;7.43;1.13;;;;;;;32.44;23.71;98746.97;5101672;28;20098;-48
2021/05/11 15:30:21;;;;;;;4.18;1.55;;;;;;;32.40;24.06;98740.25;5118911;28;20055;-48
2021/05/11 15:32:53;;;;;;;3.47;0.90;;;;;;;32.31;23.95;98727.97;5118289;28;20108;-48
2021/05/11 15:35:21;;;;;;;5.50;1.00;;;;;;;32.27;23.83;98740.22;5118925;28;20044;-48
2021/05/11 15:37:52;;;;;;;2.92;1.10;;;;;;;32.12;23.91;98733.09;5118810;28;20035;-48
2021/05/11 15:40:18;;;;;;;4.50;1.13;;;;;;;32.13;24.14;98739.34;5118727;28;20420;-48
2021/05/11 15:42:44;;;;;;;4.90;1.30;;;;;;;31.99;24.75;98737.63;5118090;28;20084;-48
2021/05/11 15:45:10;;;;;;;2.83;1.02;;;;;;;31.93;25.23;98739.28;5117439;28;20128;-48
2021/05/11 15:47:51;;;;;;;6.20;0.90;;;;;;;31.90;25.27;98731.56;5118838;28;20051;-48
2021/05/11 15:50:45;;;;;;;10.00;1.40;;;;;;;31.85;25.37;98724.03;5118917;28;20460;-48
2021/05/11 15:53:15;;;;;;;4.32;0.93;;;;;;;31.78;25.17;98717.72;5099383;28;20071;-48
2021/05/11 15:55:43;;;;;;;3.03;0.85;;;;;;;31.67;25.56;98724.53;5117736;28;20093;-48